createdAt,value
2019-04-21T00:00:35.510Z,10.10
2019-04-21T00:03:18.219Z,10.00
2019-04-21T00:08:42.856Z,10.00
2019-04-21T00:13:42.669Z,9.90
2019-04-21T00:16:08.861Z,9.80
2019-04-21T00:19:09.072Z,9.70
2019-04-21T00:21:43.234Z,9.60
2019-04-21T00:24:24.196Z,9.50
2019-04-21T00:27:03.758Z,9.50
2019-04-21T00:32:08.661Z,9.50
2019-04-21T00:34:25.745Z,9.30
2019-04-21T01:03:35.387Z,8.90
2019-04-21T01:06:03.677Z,8.80
2019-04-21T01:08:35.988Z,8.90
2019-04-21T01:11:11.727Z,8.80
2019-04-21T01:13:49.805Z,8.70
2019-04-21T01:16:20.903Z,8.70
2019-04-21T01:18:50.524Z,8.70
2019-04-21T01:20:59.668Z,8.70
2019-04-21T01:23:31.748Z,8.60
2019-04-21T01:26:18.236Z,8.50
2019-04-21T01:28:58.417Z,8.40
2019-04-21T01:31:22.981Z,8.40
2019-04-21T01:34:08.396Z,8.30
2019-04-21T01:36:38.776Z,8.40
2019-04-21T01:39:15.050Z,8.40
2019-04-21T01:41:45.048Z,8.40
2019-04-21T01:44:38.790Z,8.40
2019-04-21T01:46:58.737Z,8.30
2019-04-21T01:49:28.289Z,8.20
2019-04-21T01:52:21.443Z,8.10
2019-04-21T01:55:00.636Z,8.00
2019-04-21T01:57:59.394Z,7.90
2019-04-21T02:00:56.909Z,7.90
2019-04-21T02:03:48.684Z,7.90
2019-04-21T02:06:13.697Z,8.00
2019-04-21T02:08:38.871Z,7.90
2019-04-21T02:11:18.885Z,7.80
2019-04-21T02:13:53.385Z,7.80
2019-04-21T02:16:30.773Z,7.80
2019-04-21T02:19:03.103Z,7.80
2019-04-21T02:21:27.247Z,7.70
2019-04-21T02:24:11.902Z,7.70
2019-04-21T02:26:47.741Z,7.60
2019-04-21T02:29:20.663Z,7.60
2019-04-21T02:32:01.883Z,7.60
2019-04-21T02:42:09.727Z,7.50
2019-04-21T02:47:38.794Z,7.50
2019-04-21T02:52:37.310Z,7.40
2019-04-21T02:55:17.914Z,7.50
2019-04-21T02:57:45.480Z,7.60
2019-04-21T03:00:13.621Z,7.50
2019-04-21T03:03:17.707Z,7.50
2019-04-21T03:06:04.032Z,7.40
2019-04-21T03:13:41.661Z,7.40
2019-04-21T03:16:16.737Z,7.30
2019-04-21T03:21:19.066Z,7.30
2019-04-21T03:23:54.129Z,7.40
2019-04-21T03:26:27.476Z,7.30
2019-04-21T03:29:05.915Z,7.30
2019-04-21T03:39:05.347Z,7.20
2019-04-21T03:41:52.567Z,7.20
2019-04-21T03:44:16.594Z,7.20
2019-04-21T03:46:52.578Z,7.10
2019-04-21T03:51:54.951Z,7.10
2019-04-21T03:54:30.830Z,7.10
2019-04-21T03:57:10.568Z,7.10
2019-04-21T03:59:24.535Z,7.10
2019-04-21T04:02:34.408Z,7.10
2019-04-21T04:05:21.839Z,7.00
2019-04-21T04:08:37.265Z,7.00
2019-04-21T04:10:22.601Z,7.00
2019-04-21T04:13:01.480Z,7.00
2019-04-21T04:18:07.814Z,6.90
2019-04-21T04:20:39.825Z,6.90
2019-04-21T04:23:28.718Z,6.90
2019-04-21T04:25:37.379Z,7.10
2019-04-21T04:33:30.426Z,6.90
2019-04-21T04:36:08.153Z,6.90
2019-04-21T04:38:41.636Z,6.90
2019-04-21T04:44:07.113Z,7.00
2019-04-21T04:46:28.514Z,7.00
2019-04-21T04:49:01.740Z,7.10
2019-04-21T04:51:48.391Z,7.10
2019-04-21T04:54:17.503Z,7.10
2019-04-21T04:56:38.758Z,7.20
2019-04-21T04:59:33.718Z,7.30
2019-04-21T05:01:57.607Z,7.70
2019-04-21T05:04:18.333Z,8.60
2019-04-21T05:11:50.447Z,11.50
2019-04-21T05:14:27.426Z,12.40
2019-04-21T05:19:53.989Z,13.70
2019-04-21T05:22:08.208Z,12.40
2019-04-21T05:24:25.552Z,11.30
2019-04-21T05:26:58.456Z,10.60
2019-04-21T05:29:47.217Z,10.40
2019-04-21T05:32:36.213Z,10.20
2019-04-21T05:35:14.377Z,10.10
2019-04-21T05:38:03.047Z,9.80
2019-04-21T05:40:29.846Z,9.70
2019-04-21T05:43:07.940Z,9.80
2019-04-21T05:45:40.969Z,9.70
2019-04-21T05:50:55.489Z,9.80
2019-04-21T05:56:03.596Z,9.90
2019-04-21T05:58:40.645Z,10.00
2019-04-21T06:01:24.105Z,10.10
2019-04-21T06:03:49.249Z,10.40
2019-04-21T06:06:24.469Z,11.00
2019-04-21T06:08:49.890Z,12.00
2019-04-21T06:11:30.566Z,13.10
2019-04-21T06:16:36.465Z,15.50
2019-04-21T06:19:22.302Z,16.90
2019-04-21T06:21:33.256Z,17.20
2019-04-21T06:24:03.911Z,17.40
2019-04-21T06:29:15.269Z,17.80
2019-04-21T06:32:14.196Z,18.10
2019-04-21T06:34:24.769Z,19.50
2019-04-21T06:37:21.656Z,18.80
2019-04-21T06:39:54.060Z,18.70
2019-04-21T06:42:09.079Z,18.80
2019-04-21T06:44:54.088Z,18.50
2019-04-21T06:47:29.985Z,18.10
2019-04-21T06:49:55.578Z,18.20
2019-04-21T06:52:51.694Z,18.50
2019-04-21T06:55:12.130Z,18.30
2019-04-21T06:57:34.824Z,18.70
2019-04-21T07:00:06.506Z,19.00
2019-04-21T07:05:15.475Z,19.70
2019-04-21T07:07:51.886Z,20.60
2019-04-21T07:10:26.314Z,21.30
2019-04-21T07:12:55.810Z,21.10
2019-04-21T07:15:30.820Z,21.10
2019-04-21T07:17:58.294Z,21.30
2019-04-21T07:20:28.258Z,21.70
2019-04-21T07:23:13.717Z,21.70
2019-04-21T07:25:40.856Z,21.90
2019-04-21T07:28:15.569Z,21.90
2019-04-21T07:30:43.644Z,21.50
2019-04-21T07:33:41.522Z,20.70
2019-04-21T07:35:50.621Z,20.80
2019-04-21T07:38:22.444Z,20.60
2019-04-21T07:40:45.564Z,20.80
2019-04-21T07:43:23.373Z,21.50
2019-04-21T07:45:58.498Z,22.20
2019-04-21T07:48:46.937Z,22.20
2019-04-21T07:51:47.643Z,22.00
2019-04-21T07:54:17.199Z,21.50
2019-04-21T07:56:34.988Z,21.40
2019-04-21T07:59:34.146Z,22.80
2019-04-21T08:01:56.463Z,22.80
2019-04-21T08:04:49.566Z,23.50
2019-04-21T08:07:02.797Z,23.00
2019-04-21T08:09:31.880Z,23.50
2019-04-21T08:12:01.398Z,23.10
2019-04-21T08:14:35.655Z,22.20
2019-04-21T08:17:10.957Z,21.50
2019-04-21T08:19:44.208Z,20.70
2019-04-21T08:22:19.617Z,20.70
2019-04-21T08:24:51.771Z,20.60
2019-04-21T08:27:26.991Z,20.90
2019-04-21T08:29:54.951Z,20.50
2019-04-21T08:32:39.520Z,19.80
2019-04-21T08:35:20.771Z,19.40
2019-04-21T08:37:34.991Z,19.60
2019-04-21T08:42:30.551Z,20.10
2019-04-21T08:45:07.680Z,20.70
2019-04-21T08:47:48.983Z,20.30
2019-04-21T08:50:14.909Z,20.40
2019-04-21T08:52:49.336Z,21.10
2019-04-21T08:55:37.789Z,21.40
2019-04-21T09:01:14.201Z,20.40
2019-04-21T09:06:42.011Z,21.20
2019-04-21T09:09:04.993Z,20.80
2019-04-21T09:11:34.831Z,21.20
2019-04-21T09:14:07.564Z,21.80
2019-04-21T09:16:35.586Z,21.60
2019-04-21T09:19:11.467Z,22.70
2019-04-21T09:24:16.069Z,23.80
2019-04-21T09:26:51.718Z,24.80
2019-04-21T09:29:15.876Z,24.10
2019-04-21T09:31:41.081Z,24.30
2019-04-21T09:34:14.316Z,24.80
2019-04-21T09:36:47.773Z,24.80
2019-04-21T09:39:20.374Z,24.50
2019-04-21T09:41:51.172Z,24.30
2019-04-21T09:44:27.580Z,24.20
2019-04-21T09:46:56.368Z,24.70
2019-04-21T09:49:30.870Z,24.80
2019-04-21T09:51:59.988Z,25.90
2019-04-21T09:54:35.127Z,27.50
2019-04-21T09:57:07.502Z,26.50
2019-04-21T09:59:40.099Z,26.00
2019-04-21T10:02:16.123Z,26.00
2019-04-21T10:04:42.481Z,26.20
2019-04-21T10:07:24.329Z,26.60
2019-04-21T10:09:47.879Z,26.20
2019-04-21T10:12:19.939Z,25.60
2019-04-21T10:14:51.828Z,25.80
2019-04-21T10:17:27.613Z,26.10
2019-04-21T10:19:58.817Z,25.30
2019-04-21T10:22:30.948Z,24.40
2019-04-21T10:25:02.948Z,23.50
2019-04-21T10:27:34.863Z,23.10
2019-04-21T10:30:07.756Z,22.70
2019-04-21T10:32:38.868Z,22.90
2019-04-21T10:35:10.949Z,23.40
2019-04-21T10:37:54.102Z,23.30
2019-04-21T10:40:15.900Z,23.60
2019-04-21T10:42:48.130Z,24.50
2019-04-21T10:45:21.079Z,24.90
2019-04-21T10:47:52.810Z,25.60
2019-04-21T10:50:24.552Z,27.10
2019-04-21T10:53:02.919Z,27.90
2019-04-21T10:55:53.561Z,28.50
2019-04-21T10:58:14.281Z,27.90
2019-04-21T11:00:46.268Z,28.30
2019-04-21T11:03:35.288Z,29.60
2019-04-21T11:06:06.618Z,29.10
2019-04-21T11:08:43.362Z,27.50
2019-04-21T11:11:11.991Z,26.50
2019-04-21T11:13:44.313Z,26.10
2019-04-21T11:16:15.409Z,25.40
2019-04-21T11:18:46.162Z,24.50
2019-04-21T11:21:16.809Z,24.00
2019-04-21T11:23:48.008Z,24.40
2019-04-21T11:26:20.033Z,23.80
2019-04-21T11:28:50.701Z,23.80
2019-04-21T11:31:22.926Z,23.40
2019-04-21T11:33:55.414Z,22.90
2019-04-21T11:36:27.104Z,22.50
2019-04-21T11:39:24.481Z,22.80
2019-04-21T11:41:47.837Z,22.40
2019-04-21T11:44:21.474Z,22.00
2019-04-21T11:46:52.120Z,22.00
2019-04-21T11:49:24.288Z,22.20
2019-04-21T11:51:56.533Z,22.50
2019-04-21T11:54:28.812Z,22.40
2019-04-21T11:57:03.377Z,22.50
2019-04-21T11:59:33.466Z,22.40
2019-04-21T12:02:05.580Z,22.30
2019-04-21T12:04:36.428Z,22.30
2019-04-21T12:07:09.095Z,22.20
2019-04-21T12:09:39.947Z,22.70
2019-04-21T12:12:11.602Z,22.80
2019-04-21T12:14:43.855Z,22.60
2019-04-21T12:17:16.309Z,22.80
2019-04-21T12:19:48.550Z,23.20
2019-04-21T12:22:23.641Z,23.70
2019-04-21T12:24:51.603Z,23.80
2019-04-21T12:27:22.427Z,23.80
2019-04-21T12:29:53.490Z,23.90
2019-04-21T12:32:46.316Z,24.20
2019-04-21T12:35:17.821Z,23.80
2019-04-21T12:37:51.051Z,23.30
2019-04-21T12:40:22.335Z,23.20
2019-04-21T12:42:54.868Z,23.50
2019-04-21T12:45:26.106Z,23.30
2019-04-21T12:47:57.956Z,23.30
2019-04-21T12:50:30.019Z,23.00
2019-04-21T12:53:00.809Z,22.60
2019-04-21T12:55:38.409Z,22.80
2019-04-21T12:58:05.555Z,22.80
2019-04-21T13:00:36.916Z,22.80
2019-04-21T13:03:08.249Z,23.00
2019-04-21T13:05:39.963Z,23.00
2019-04-21T13:08:11.464Z,23.20
2019-04-21T13:10:42.724Z,23.00
2019-04-21T13:13:14.373Z,22.50
2019-04-21T13:15:45.602Z,22.50
2019-04-21T13:18:16.640Z,22.50
2019-04-21T13:20:48.518Z,22.40
2019-04-21T13:23:19.242Z,22.80
2019-04-21T13:25:50.287Z,22.80
2019-04-21T13:28:21.207Z,22.90
2019-04-21T13:30:52.265Z,23.00
2019-04-21T13:33:23.302Z,23.20
2019-04-21T13:35:55.132Z,23.50
2019-04-21T13:38:33.257Z,23.80
2019-04-21T13:41:29.784Z,23.90
2019-04-21T13:43:50.875Z,23.90
2019-04-21T13:46:22.778Z,24.30
2019-04-21T13:48:54.792Z,24.40
2019-04-21T13:51:27.030Z,24.30
2019-04-21T13:53:58.013Z,24.30
2019-04-21T13:56:29.064Z,24.70
2019-04-21T13:59:00.136Z,25.30
2019-04-21T14:01:31.806Z,25.30
2019-04-21T14:04:03.275Z,24.50
2019-04-21T14:06:34.328Z,25.00
2019-04-21T14:09:09.438Z,26.10
2019-04-21T14:11:41.171Z,27.30
2019-04-21T14:14:12.527Z,28.40
2019-04-21T14:16:45.553Z,29.10
2019-04-21T14:19:17.265Z,30.00
2019-04-21T14:21:50.838Z,30.20
2019-04-21T14:24:20.674Z,30.20
2019-04-21T14:26:54.588Z,31.20
2019-04-21T14:29:25.789Z,31.90
2019-04-21T14:31:58.045Z,32.60
2019-04-21T14:34:30.193Z,32.80
2019-04-21T14:37:02.554Z,32.30
2019-04-21T14:39:34.653Z,31.20
2019-04-21T14:42:06.449Z,31.90
2019-04-21T14:44:38.740Z,32.20
2019-04-21T14:47:31.681Z,32.50
2019-04-21T14:50:22.265Z,31.20
2019-04-21T14:53:31.772Z,31.50
2019-04-21T14:56:03.599Z,31.70
2019-04-21T14:58:41.280Z,32.80
2019-04-21T15:01:11.863Z,33.20
2019-04-21T15:03:43.707Z,32.80
2019-04-21T15:06:15.737Z,32.10
2019-04-21T15:08:47.104Z,31.30
2019-04-21T15:11:18.038Z,29.90
2019-04-21T15:13:49.845Z,29.20
2019-04-21T15:16:22.815Z,28.60
2019-04-21T15:18:54.665Z,29.60
2019-04-21T15:21:25.809Z,29.90
2019-04-21T15:23:58.185Z,29.70
2019-04-21T15:26:30.440Z,29.00
2019-04-21T15:29:02.577Z,27.60
2019-04-21T15:31:37.418Z,26.90
2019-04-21T15:34:07.395Z,26.20
2019-04-21T15:36:42.004Z,25.70
2019-04-21T15:39:13.809Z,25.80
2019-04-21T15:41:45.064Z,25.80
2019-04-21T15:44:16.560Z,25.70
2019-04-21T15:46:50.068Z,25.70
2019-04-21T15:49:21.247Z,25.80
2019-04-21T15:51:52.055Z,25.30
2019-04-21T15:54:23.053Z,25.20
2019-04-21T15:57:08.702Z,25.20
2019-04-21T15:59:58.326Z,25.20
2019-04-21T16:02:40.340Z,25.00
2019-04-21T16:05:13.054Z,25.10
2019-04-21T16:07:44.525Z,24.90
2019-04-21T16:10:28.530Z,24.80
2019-04-21T16:12:49.763Z,24.70
2019-04-21T16:15:22.875Z,24.50
2019-04-21T16:17:55.230Z,24.70
2019-04-21T16:20:26.369Z,24.90
2019-04-21T16:22:56.915Z,25.10
2019-04-21T16:25:28.706Z,25.20
2019-04-21T16:27:59.540Z,25.30
2019-04-21T16:30:30.843Z,25.70
2019-04-21T16:33:02.093Z,26.20
2019-04-21T16:35:33.823Z,26.20
2019-04-21T16:38:05.956Z,26.50
2019-04-21T16:40:46.793Z,25.90
2019-04-21T16:43:10.070Z,26.00
2019-04-21T16:45:41.175Z,24.80
2019-04-21T16:48:12.978Z,24.50
2019-04-21T16:50:44.096Z,24.40
2019-04-21T16:53:22.031Z,24.40
2019-04-21T16:56:17.244Z,24.20
2019-04-21T16:58:52.631Z,23.90
2019-04-21T17:01:29.802Z,23.30
2019-04-21T17:04:02.220Z,23.30
2019-04-21T17:06:33.312Z,23.20
2019-04-21T17:09:05.034Z,23.10
2019-04-21T17:11:38.052Z,22.80
2019-04-21T17:14:27.305Z,22.60
2019-04-21T17:17:14.163Z,22.50
2019-04-21T17:19:25.080Z,22.40
2019-04-21T17:21:49.916Z,22.30
2019-04-21T17:24:24.275Z,22.10
2019-04-21T17:27:02.880Z,22.10
2019-04-21T17:29:38.876Z,21.90
2019-04-21T17:32:10.505Z,21.70
2019-04-21T17:34:42.023Z,21.50
2019-04-21T17:37:13.267Z,21.20
2019-04-21T17:39:45.020Z,21.00
2019-04-21T17:42:26.425Z,20.80
2019-04-21T17:44:51.076Z,20.60
2019-04-21T17:47:32.071Z,20.40
2019-04-21T17:50:19.882Z,20.20
2019-04-21T17:53:00.821Z,20.00
2019-04-21T17:55:31.339Z,19.70
2019-04-21T17:58:15.021Z,19.50
2019-04-21T18:01:13.896Z,19.20
2019-04-21T18:03:46.244Z,19.00
2019-04-21T18:05:59.444Z,18.80
2019-04-21T18:08:40.492Z,18.60
2019-04-21T18:11:03.451Z,18.50
2019-04-21T18:13:30.569Z,18.30
2019-04-21T18:16:13.462Z,18.20
2019-04-21T18:18:44.451Z,18.00
2019-04-21T18:21:30.628Z,17.90
2019-04-21T18:24:08.049Z,17.90
2019-04-21T18:26:46.721Z,18.00
2019-04-21T18:29:16.329Z,18.10
2019-04-21T18:31:50.454Z,18.10
2019-04-21T18:35:02.449Z,18.20
2019-04-21T18:38:15.793Z,18.10
2019-04-21T18:40:56.465Z,18.00
2019-04-21T18:43:55.565Z,17.90
2019-04-21T18:46:52.468Z,17.70
2019-04-21T18:49:15.464Z,17.70
2019-04-21T18:52:02.249Z,17.50
2019-04-21T18:54:44.446Z,17.30
2019-04-21T18:57:08.075Z,17.40
2019-04-21T18:59:37.278Z,17.40
2019-04-21T19:02:09.838Z,17.30
2019-04-21T19:04:44.920Z,17.00
2019-04-21T19:07:31.705Z,17.00
2019-04-21T19:10:22.237Z,16.70
2019-04-21T19:13:09.173Z,16.50
2019-04-21T19:15:15.950Z,16.30
2019-04-21T19:18:17.007Z,16.00
2019-04-21T19:20:25.661Z,15.80
2019-04-21T19:22:52.429Z,15.50
2019-04-21T19:26:06.108Z,15.40
2019-04-21T19:29:01.542Z,15.80
2019-04-21T19:32:11.877Z,15.70
2019-04-21T19:34:17.419Z,15.60
2019-04-21T19:36:51.018Z,15.40
2019-04-21T19:39:34.984Z,15.20
2019-04-21T19:42:00.853Z,15.10
2019-04-21T19:44:45.637Z,14.90
2019-04-21T19:47:20.849Z,14.70
2019-04-21T19:49:55.149Z,14.60
2019-04-21T19:52:11.351Z,14.70
2019-04-21T19:54:49.119Z,14.50
2019-04-21T19:57:20.978Z,14.40
2019-04-21T19:59:55.736Z,14.30
2019-04-21T20:02:26.668Z,14.10
2019-04-21T20:05:04.959Z,13.90
2019-04-21T20:07:44.470Z,13.70
2019-04-21T20:10:26.842Z,13.60
2019-04-21T20:12:55.609Z,13.60
2019-04-21T20:15:37.584Z,13.50
2019-04-21T20:17:58.815Z,13.50
2019-04-21T20:20:19.515Z,13.50
2019-04-21T20:22:52.375Z,13.40
2019-04-21T20:25:24.903Z,13.50
2019-04-21T20:28:04.960Z,13.40
2019-04-21T20:30:59.618Z,13.30
2019-04-21T20:36:15.028Z,12.90
2019-04-21T20:38:24.843Z,12.90
2019-04-21T20:40:56.454Z,12.80
2019-04-21T20:46:08.040Z,12.60
2019-04-21T20:48:42.813Z,12.40
2019-04-21T20:51:23.694Z,12.50
2019-04-21T20:53:54.060Z,12.60
2019-04-21T20:56:40.951Z,12.70
2019-04-21T20:59:12.064Z,13.00
2019-04-21T21:01:44.400Z,13.10
2019-04-21T21:04:17.525Z,13.50
2019-04-21T21:07:16.292Z,13.60
2019-04-21T21:12:19.071Z,13.50
2019-04-21T21:14:45.075Z,12.80
2019-04-21T21:17:36.033Z,12.50
2019-04-21T21:19:52.857Z,12.20
2019-04-21T21:22:22.758Z,12.00
2019-04-21T21:25:02.960Z,11.70
2019-04-21T21:27:49.403Z,11.70
2019-04-21T21:31:04.148Z,11.50
2019-04-21T21:33:58.790Z,11.40
2019-04-21T21:36:46.060Z,11.40
2019-04-21T21:39:40.652Z,11.20
2019-04-21T21:42:29.559Z,11.30
2019-04-21T21:45:06.061Z,11.10
2019-04-21T21:47:48.575Z,11.00
2019-04-21T21:50:16.153Z,11.10
2019-04-21T21:53:05.816Z,10.90
2019-04-21T21:55:33.983Z,10.90
2019-04-21T21:58:27.428Z,10.80
2019-04-21T22:01:02.306Z,10.70
2019-04-21T22:04:01.708Z,10.70
2019-04-21T22:06:41.048Z,10.70
2019-04-21T22:09:10.209Z,10.80
2019-04-21T22:11:42.239Z,10.80
2019-04-21T22:14:22.971Z,10.90
2019-04-21T22:17:06.105Z,10.90
2019-04-21T22:19:41.622Z,10.80
2019-04-21T22:22:15.885Z,10.70
2019-04-21T22:24:49.281Z,10.40
2019-04-21T22:27:09.912Z,10.70
2019-04-21T22:29:49.220Z,10.50
2019-04-21T22:32:21.544Z,10.40
2019-04-21T22:34:56.489Z,10.20
2019-04-21T22:37:37.943Z,10.20
2019-04-21T22:40:08.577Z,10.10
2019-04-21T22:42:34.782Z,10.00
2019-04-21T22:45:01.895Z,9.90
2019-04-21T22:47:36.469Z,9.80
2019-04-21T22:50:28.815Z,9.80
2019-04-21T22:53:04.773Z,9.70
2019-04-21T22:55:35.149Z,9.80
2019-04-21T22:58:09.632Z,9.90
2019-04-21T23:00:47.806Z,9.90
2019-04-21T23:03:19.317Z,9.90
2019-04-21T23:05:46.958Z,9.80
2019-04-21T23:08:22.504Z,9.80
2019-04-21T23:10:59.154Z,9.70
2019-04-21T23:13:25.955Z,9.60
2019-04-21T23:15:59.424Z,9.50
2019-04-21T23:18:42.368Z,9.40
2019-04-21T23:21:17.636Z,9.20
2019-04-21T23:23:57.178Z,9.10
2019-04-21T23:26:29.750Z,9.10
2019-04-21T23:29:02.037Z,9.10
2019-04-21T23:31:34.528Z,9.20
2019-04-21T23:33:48.435Z,9.10
2019-04-21T23:36:25.851Z,9.00
2019-04-21T23:38:55.039Z,8.80
2019-04-21T23:41:39.029Z,8.70
2019-04-21T23:44:06.901Z,8.70
2019-04-21T23:46:37.340Z,8.90
2019-04-21T23:49:22.867Z,8.80
2019-04-21T23:51:52.862Z,8.90
2019-04-21T23:54:19.599Z,8.80
2019-04-21T23:56:51.712Z,8.80
2019-04-21T23:59:22.624Z,8.70
